createdAt,value
2017-05-13T00:00:01.960Z,0
2017-05-13T00:01:11.356Z,0
2017-05-13T00:02:21.063Z,0
2017-05-13T00:03:30.775Z,0
2017-05-13T00:04:41.108Z,0
2017-05-13T00:05:51.170Z,0
2017-05-13T00:07:00.568Z,0
2017-05-13T00:08:10.588Z,0
2017-05-13T00:09:19.678Z,0
2017-05-13T00:10:29.074Z,0
2017-05-13T00:11:38.786Z,0
2017-05-13T00:12:48.501Z,0
2017-05-13T00:13:57.944Z,0
2017-05-13T00:15:07.973Z,0
2017-05-13T00:16:17.996Z,0
2017-05-13T00:17:27.702Z,0
2017-05-13T00:18:37.107Z,0
2017-05-13T00:19:47.140Z,0
2017-05-13T00:20:56.865Z,0
2017-05-13T00:22:07.196Z,0
2017-05-13T00:23:17.535Z,0
2017-05-13T00:24:27.560Z,0
2017-05-13T00:25:37.270Z,0
2017-05-13T00:26:47.307Z,0
2017-05-13T00:27:56.748Z,0
2017-05-13T00:29:06.768Z,0
2017-05-13T00:30:16.792Z,0
2017-05-13T00:31:26.189Z,0
2017-05-13T00:32:35.903Z,0
2017-05-13T00:33:45.629Z,0
2017-05-13T00:34:55.066Z,0
2017-05-13T00:36:04.777Z,0
2017-05-13T00:37:14.487Z,0
2017-05-13T00:38:24.194Z,0
2017-05-13T00:39:33.911Z,0
2017-05-13T00:40:44.250Z,0
2017-05-13T00:41:53.966Z,0
2017-05-13T00:43:03.678Z,0
2017-05-13T00:44:13.394Z,0
2017-05-13T00:45:23.743Z,0
2017-05-13T00:46:33.459Z,0
2017-05-13T00:47:43.187Z,0
2017-05-13T00:48:52.902Z,0
2017-05-13T00:50:02.935Z,0
2017-05-13T00:51:12.650Z,0
2017-05-13T00:52:22.362Z,0
2017-05-13T00:53:32.701Z,0
2017-05-13T00:54:42.723Z,0
2017-05-13T00:55:52.782Z,0
2017-05-13T00:57:02.192Z,0
2017-05-13T00:58:11.587Z,0
2017-05-13T00:59:21.621Z,0
2017-05-13T01:00:31.958Z,0
2017-05-13T01:01:41.982Z,0
2017-05-13T01:02:51.387Z,0
2017-05-13T01:04:00.471Z,0
2017-05-13T01:05:09.243Z,0
2017-05-13T01:06:18.635Z,0
2017-05-13T01:07:28.039Z,0
2017-05-13T01:08:37.435Z,0
2017-05-13T01:09:46.514Z,0
2017-05-13T01:10:56.548Z,0
2017-05-13T01:12:06.256Z,0
2017-05-13T01:13:15.974Z,0
2017-05-13T01:14:25.681Z,0
2017-05-13T01:15:35.704Z,0
2017-05-13T01:16:45.435Z,0
2017-05-13T01:17:55.775Z,0
2017-05-13T01:19:05.799Z,0
2017-05-13T01:20:15.536Z,0
2017-05-13T01:21:25.557Z,0
2017-05-13T01:22:35.272Z,0
2017-05-13T01:23:44.983Z,0
2017-05-13T01:24:55.339Z,0
2017-05-13T01:26:05.669Z,0
2017-05-13T01:27:15.378Z,0
2017-05-13T01:28:25.733Z,0
2017-05-13T01:29:35.756Z,0
2017-05-13T01:30:45.774Z,0
2017-05-13T01:31:55.172Z,0
2017-05-13T01:33:04.884Z,0
2017-05-13T01:34:14.586Z,0
2017-05-13T01:35:24.609Z,0
2017-05-13T01:36:34.627Z,0
2017-05-13T01:37:44.652Z,0
2017-05-13T01:38:54.050Z,0
2017-05-13T01:40:03.447Z,0
2017-05-13T01:41:13.528Z,0
2017-05-13T01:42:23.240Z,0
2017-05-13T01:43:33.577Z,0
2017-05-13T01:44:43.295Z,0
2017-05-13T01:45:53.013Z,0
2017-05-13T01:47:02.724Z,0
2017-05-13T01:48:12.434Z,0
2017-05-13T01:49:22.451Z,0
2017-05-13T01:50:31.843Z,0
2017-05-13T01:51:42.183Z,0
2017-05-13T01:52:52.201Z,0
2017-05-13T01:54:02.224Z,0
2017-05-13T01:55:11.945Z,0
2017-05-13T01:56:22.281Z,0
2017-05-13T01:57:31.043Z,0
2017-05-13T01:58:40.122Z,0
2017-05-13T01:59:49.832Z,0
2017-05-13T02:00:59.235Z,0
2017-05-13T02:02:08.941Z,0
2017-05-13T02:03:18.043Z,0
2017-05-13T02:04:27.449Z,0
2017-05-13T02:05:37.466Z,0
2017-05-13T02:06:46.870Z,0
2017-05-13T02:07:56.265Z,0
2017-05-13T02:09:06.610Z,0
2017-05-13T02:10:16.319Z,0
2017-05-13T02:11:26.341Z,0
2017-05-13T02:12:36.377Z,0
2017-05-13T02:13:46.415Z,0
2017-05-13T02:14:56.523Z,0
2017-05-13T02:16:06.244Z,0
2017-05-13T02:17:16.266Z,0
2017-05-13T02:18:26.293Z,0
2017-05-13T02:19:36.326Z,0
2017-05-13T02:20:46.351Z,0
2017-05-13T02:21:56.061Z,0
2017-05-13T02:23:06.079Z,0
2017-05-13T02:24:15.791Z,0
2017-05-13T02:25:25.820Z,0
2017-05-13T02:26:35.218Z,0
2017-05-13T02:27:45.246Z,0
2017-05-13T02:28:54.959Z,0
2017-05-13T02:30:04.046Z,0
2017-05-13T02:31:13.446Z,0
2017-05-13T02:32:23.468Z,0
2017-05-13T02:33:33.184Z,0
2017-05-13T02:34:42.933Z,0
2017-05-13T02:35:52.975Z,0
2017-05-13T02:37:02.694Z,0
2017-05-13T02:38:13.040Z,0
2017-05-13T02:39:22.753Z,0
2017-05-13T02:40:32.786Z,0
2017-05-13T02:41:42.498Z,0
2017-05-13T02:42:51.895Z,0
2017-05-13T02:44:01.296Z,0
2017-05-13T02:45:11.330Z,0
2017-05-13T02:46:20.722Z,0
2017-05-13T02:47:30.748Z,0
2017-05-13T02:48:40.459Z,0
2017-05-13T02:49:50.182Z,0
2017-05-13T02:51:00.553Z,0
2017-05-13T02:52:09.958Z,0
2017-05-13T02:53:19.361Z,0
2017-05-13T02:54:29.069Z,0
2017-05-13T02:55:38.772Z,0
2017-05-13T02:56:48.477Z,0
2017-05-13T02:57:58.189Z,0
2017-05-13T02:59:08.217Z,0
2017-05-13T03:00:17.922Z,0
2017-05-13T03:01:27.947Z,0
2017-05-13T03:02:37.666Z,0
2017-05-13T03:03:47.388Z,0
2017-05-13T03:04:57.420Z,0
2017-05-13T03:06:07.134Z,0
2017-05-13T03:07:17.160Z,0
2017-05-13T03:08:26.552Z,0
2017-05-13T03:09:35.948Z,0
2017-05-13T03:10:45.350Z,0
2017-05-13T03:11:55.070Z,0
2017-05-13T03:13:05.460Z,0
2017-05-13T03:14:14.549Z,0
2017-05-13T03:15:23.952Z,0
2017-05-13T03:16:33.348Z,0
2017-05-13T03:17:43.375Z,0
2017-05-13T03:18:52.765Z,0
2017-05-13T03:20:02.790Z,0
2017-05-13T03:21:12.495Z,0
2017-05-13T03:22:21.884Z,0
2017-05-13T03:23:31.597Z,0
2017-05-13T03:24:41.317Z,0
2017-05-13T03:25:50.722Z,0
2017-05-13T03:27:00.747Z,0
2017-05-13T03:28:10.772Z,0
2017-05-13T03:29:20.489Z,0
2017-05-13T03:30:30.508Z,0
2017-05-13T03:31:40.258Z,0
2017-05-13T03:32:50.294Z,0
2017-05-13T03:34:00.014Z,0
2017-05-13T03:35:09.726Z,0
2017-05-13T03:36:19.429Z,0
2017-05-13T03:37:29.144Z,0
2017-05-13T03:38:38.867Z,0
2017-05-13T03:39:48.268Z,0
2017-05-13T03:40:58.306Z,0
2017-05-13T03:42:07.713Z,5
2017-05-13T03:43:17.426Z,5
2017-05-13T03:44:27.134Z,5
2017-05-13T03:45:36.848Z,5
2017-05-13T03:46:47.198Z,5
2017-05-13T03:47:56.599Z,5
2017-05-13T03:49:06.624Z,5
2017-05-13T03:50:16.641Z,5
2017-05-13T03:51:26.671Z,5
2017-05-13T03:52:36.702Z,5
2017-05-13T03:53:47.041Z,10
2017-05-13T03:54:57.065Z,10
2017-05-13T03:56:06.467Z,10
2017-05-13T03:57:15.551Z,10
2017-05-13T03:58:24.951Z,10
2017-05-13T03:59:34.665Z,10
2017-05-13T04:00:44.062Z,10
2017-05-13T04:01:53.773Z,15
2017-05-13T04:03:03.480Z,15
2017-05-13T04:04:12.563Z,15
2017-05-13T04:05:22.267Z,15
2017-05-13T04:06:31.667Z,15
2017-05-13T04:07:41.693Z,15
2017-05-13T04:08:51.405Z,20
2017-05-13T04:10:01.123Z,20
2017-05-13T04:11:11.150Z,20
2017-05-13T04:12:20.858Z,20
2017-05-13T04:13:30.566Z,20
2017-05-13T04:14:40.281Z,25
2017-05-13T04:15:49.991Z,25
2017-05-13T04:16:59.707Z,25
2017-05-13T04:18:09.417Z,30
2017-05-13T04:19:19.130Z,30
2017-05-13T04:20:29.157Z,35
2017-05-13T04:21:39.188Z,35
2017-05-13T04:22:49.213Z,40
2017-05-13T04:23:59.238Z,40
2017-05-13T04:25:08.320Z,45
2017-05-13T04:26:18.030Z,50
2017-05-13T04:27:27.742Z,50
2017-05-13T04:28:37.763Z,55
2017-05-13T04:29:47.474Z,60
2017-05-13T04:30:57.499Z,65
2017-05-13T04:32:07.216Z,70
2017-05-13T04:33:17.245Z,70
2017-05-13T04:34:26.964Z,75
2017-05-13T04:35:36.992Z,75
2017-05-13T04:36:46.392Z,80
2017-05-13T04:37:56.420Z,80
2017-05-13T04:39:05.820Z,85
2017-05-13T04:40:14.898Z,85
2017-05-13T04:41:24.928Z,85
2017-05-13T04:42:34.327Z,85
2017-05-13T04:43:44.088Z,90
2017-05-13T04:44:54.429Z,90
2017-05-13T04:46:03.830Z,90
2017-05-13T04:47:14.168Z,95
2017-05-13T04:48:23.875Z,95
2017-05-13T04:49:33.274Z,95
2017-05-13T04:50:42.998Z,95
2017-05-13T04:51:53.026Z,100
2017-05-13T04:53:02.739Z,100
2017-05-13T04:54:12.138Z,105
2017-05-13T04:55:22.157Z,110
2017-05-13T04:56:31.238Z,115
2017-05-13T04:57:40.948Z,120
2017-05-13T04:58:50.664Z,125
2017-05-13T05:00:00.376Z,135
2017-05-13T05:01:10.405Z,140
2017-05-13T05:02:20.120Z,150
2017-05-13T05:03:29.209Z,160
2017-05-13T05:04:39.233Z,165
2017-05-13T05:05:49.002Z,175
2017-05-13T05:06:58.717Z,180
2017-05-13T05:08:08.738Z,185
2017-05-13T05:09:18.139Z,195
2017-05-13T05:10:27.852Z,200
2017-05-13T05:11:37.558Z,200
2017-05-13T05:12:47.581Z,195
2017-05-13T05:13:57.297Z,190
2017-05-13T05:15:07.325Z,190
2017-05-13T05:16:17.353Z,180
2017-05-13T05:17:27.382Z,170
2017-05-13T05:18:37.101Z,170
2017-05-13T05:19:47.136Z,165
2017-05-13T05:20:56.862Z,160
2017-05-13T05:22:06.256Z,155
2017-05-13T05:23:16.278Z,145
2017-05-13T05:24:26.313Z,145
2017-05-13T05:25:36.337Z,145
2017-05-13T05:26:45.737Z,145
2017-05-13T05:27:56.083Z,155
2017-05-13T05:29:05.475Z,165
2017-05-13T05:30:15.497Z,175
2017-05-13T05:31:25.519Z,180
2017-05-13T05:32:35.543Z,195
2017-05-13T05:33:45.247Z,210
2017-05-13T05:34:54.652Z,225
2017-05-13T05:36:04.048Z,240
2017-05-13T05:37:14.072Z,250
2017-05-13T05:38:24.413Z,255
2017-05-13T05:39:34.123Z,260
2017-05-13T05:40:44.141Z,265
2017-05-13T05:41:53.895Z,270
2017-05-13T05:43:03.617Z,275
2017-05-13T05:44:13.327Z,275
2017-05-13T05:45:22.726Z,275
2017-05-13T05:46:32.757Z,275
2017-05-13T05:47:42.468Z,280
2017-05-13T05:48:51.865Z,285
2017-05-13T05:50:01.581Z,295
2017-05-13T05:51:10.978Z,310
2017-05-13T05:52:20.686Z,330
2017-05-13T05:53:30.396Z,350
2017-05-13T05:54:40.735Z,365
2017-05-13T05:55:50.140Z,380
2017-05-13T05:56:59.536Z,395
2017-05-13T05:58:08.935Z,415
2017-05-13T05:59:18.648Z,430
2017-05-13T06:00:28.675Z,445
2017-05-13T06:01:38.707Z,450
2017-05-13T06:02:48.148Z,460
2017-05-13T06:03:57.554Z,455
2017-05-13T06:05:07.585Z,465
2017-05-13T06:06:16.981Z,465
2017-05-13T06:07:27.322Z,455
2017-05-13T06:08:37.658Z,455
2017-05-13T06:09:48.018Z,455
2017-05-13T06:10:57.735Z,455
2017-05-13T06:12:07.448Z,455
2017-05-13T06:13:17.473Z,445
2017-05-13T06:14:27.187Z,425
2017-05-13T06:15:36.584Z,465
2017-05-13T06:16:46.659Z,405
2017-05-13T06:17:56.687Z,390
2017-05-13T06:19:06.714Z,380
2017-05-13T06:20:15.792Z,390
2017-05-13T06:21:25.504Z,415
2017-05-13T06:22:34.906Z,495
2017-05-13T06:23:44.302Z,490
2017-05-13T06:24:53.703Z,480
2017-05-13T06:26:03.416Z,470
2017-05-13T06:27:13.752Z,440
2017-05-13T06:28:23.787Z,430
2017-05-13T06:29:33.229Z,435
2017-05-13T06:30:42.633Z,460
2017-05-13T06:31:52.662Z,465
2017-05-13T06:33:02.690Z,440
2017-05-13T06:34:12.407Z,435
2017-05-13T06:35:22.742Z,450
2017-05-13T06:36:33.082Z,470
2017-05-13T06:37:42.481Z,460
2017-05-13T06:38:52.509Z,430
2017-05-13T06:40:02.547Z,415
2017-05-13T06:41:12.574Z,425
2017-05-13T06:42:22.286Z,430
2017-05-13T06:43:32.309Z,420
2017-05-13T06:44:42.333Z,435
2017-05-13T06:45:52.042Z,445
2017-05-13T06:47:01.444Z,400
2017-05-13T06:48:11.165Z,440
2017-05-13T06:49:20.876Z,465
2017-05-13T06:50:31.216Z,475
2017-05-13T06:51:41.244Z,495
2017-05-13T06:52:51.006Z,490
2017-05-13T06:54:00.724Z,485
2017-05-13T06:55:11.069Z,490
2017-05-13T06:56:20.793Z,535
2017-05-13T06:57:30.823Z,580
2017-05-13T06:58:40.858Z,635
2017-05-13T06:59:50.895Z,795
2017-05-13T07:00:59.983Z,920
2017-05-13T07:02:09.702Z,1275
2017-05-13T07:03:19.735Z,815
2017-05-13T07:04:29.141Z,1445
2017-05-13T07:05:38.868Z,1570
2017-05-13T07:06:49.213Z,875
2017-05-13T07:07:58.934Z,1040
2017-05-13T07:09:08.971Z,860
2017-05-13T07:10:18.415Z,535
2017-05-13T07:11:28.443Z,470
2017-05-13T07:12:38.160Z,495
2017-05-13T07:13:47.247Z,740
2017-05-13T07:14:56.959Z,620
2017-05-13T07:16:06.367Z,810
2017-05-13T07:17:16.084Z,825
2017-05-13T07:18:26.120Z,780
2017-05-13T07:19:35.842Z,720
2017-05-13T07:20:45.870Z,715
2017-05-13T07:21:55.586Z,740
2017-05-13T07:23:04.671Z,720
2017-05-13T07:24:14.435Z,695
2017-05-13T07:25:24.466Z,615
2017-05-13T07:26:34.495Z,520
2017-05-13T07:27:44.210Z,485
2017-05-13T07:28:53.928Z,660
2017-05-13T07:30:03.958Z,790
2017-05-13T07:31:14.300Z,945
2017-05-13T07:32:24.015Z,995
2017-05-13T07:33:34.363Z,805
2017-05-13T07:34:44.436Z,700
2017-05-13T07:35:53.521Z,800
2017-05-13T07:37:03.274Z,855
2017-05-13T07:38:12.359Z,1750
2017-05-13T07:39:22.083Z,1230
2017-05-13T07:40:31.173Z,1660
2017-05-13T07:41:41.197Z,1070
2017-05-13T07:42:51.540Z,960
2017-05-13T07:44:00.938Z,945
2017-05-13T07:45:10.660Z,1015
2017-05-13T07:46:20.378Z,805
2017-05-13T07:47:30.104Z,780
2017-05-13T07:48:40.459Z,645
2017-05-13T07:49:50.801Z,495
2017-05-13T07:51:00.527Z,410
2017-05-13T07:52:10.721Z,375
2017-05-13T07:53:20.440Z,400
2017-05-13T07:54:29.836Z,440
2017-05-13T07:55:39.558Z,505
2017-05-13T07:56:49.585Z,570
2017-05-13T07:57:58.677Z,630
2017-05-13T07:59:08.083Z,720
2017-05-13T08:00:17.800Z,710
2017-05-13T08:01:27.513Z,645
2017-05-13T08:02:37.229Z,655
2017-05-13T08:03:47.256Z,710
2017-05-13T08:04:57.285Z,790
2017-05-13T08:06:06.996Z,680
2017-05-13T08:07:16.398Z,745
2017-05-13T08:08:26.740Z,1080
2017-05-13T08:09:36.773Z,995
2017-05-13T08:10:46.799Z,2240
2017-05-13T08:11:56.516Z,2245
2017-05-13T08:13:05.614Z,1880
2017-05-13T08:14:15.330Z,1280
2017-05-13T08:15:25.363Z,2250
2017-05-13T08:16:35.083Z,2165
2017-05-13T08:17:44.796Z,2125
2017-05-13T08:18:54.829Z,1665
2017-05-13T08:20:04.547Z,2120
2017-05-13T08:21:14.270Z,2060
2017-05-13T08:22:24.617Z,2185
2017-05-13T08:23:34.343Z,990
2017-05-13T08:24:44.367Z,2455
2017-05-13T08:25:54.091Z,2315
2017-05-13T08:27:03.502Z,2135
2017-05-13T08:28:13.229Z,815
2017-05-13T08:29:22.677Z,920
2017-05-13T08:30:32.085Z,2135
2017-05-13T08:31:42.435Z,2635
2017-05-13T08:32:51.879Z,980
2017-05-13T08:34:01.914Z,1085
2017-05-13T08:35:11.630Z,1495
2017-05-13T08:36:21.663Z,1395
2017-05-13T08:37:31.073Z,1950
2017-05-13T08:38:40.793Z,950
2017-05-13T08:39:50.518Z,990
2017-05-13T08:41:00.240Z,755
2017-05-13T08:42:09.966Z,2590
2017-05-13T08:43:19.367Z,1265
2017-05-13T08:44:28.766Z,2400
2017-05-13T08:45:38.800Z,1185
2017-05-13T08:46:48.520Z,2560
2017-05-13T08:47:58.252Z,2565
2017-05-13T08:49:07.344Z,2440
2017-05-13T08:50:17.691Z,2415
2017-05-13T08:51:27.102Z,2580
2017-05-13T08:52:37.147Z,2580
2017-05-13T08:53:46.555Z,1085
2017-05-13T08:54:56.592Z,2755
2017-05-13T08:56:06.358Z,2755
2017-05-13T08:57:16.715Z,1250
2017-05-13T08:58:26.750Z,2845
2017-05-13T08:59:36.784Z,1100
2017-05-13T09:00:46.192Z,865
2017-05-13T09:01:56.227Z,2920
2017-05-13T09:03:06.267Z,2915
2017-05-13T09:04:15.990Z,3270
2017-05-13T09:05:25.400Z,2535
2017-05-13T09:06:35.118Z,3265
2017-05-13T09:07:45.155Z,2980
2017-05-13T09:08:54.880Z,2985
2017-05-13T09:10:04.605Z,2905
2017-05-13T09:11:14.643Z,2865
2017-05-13T09:12:24.681Z,2600
2017-05-13T09:13:34.405Z,2655
2017-05-13T09:14:44.467Z,2780
2017-05-13T09:15:54.510Z,2735
2017-05-13T09:17:03.924Z,2850
2017-05-13T09:18:13.023Z,3615
2017-05-13T09:19:23.061Z,870
2017-05-13T09:20:32.791Z,2230
2017-05-13T09:21:42.522Z,2015
2017-05-13T09:22:52.293Z,1950
2017-05-13T09:24:02.021Z,2055
2017-05-13T09:25:11.749Z,1785
2017-05-13T09:26:21.479Z,2045
2017-05-13T09:27:30.892Z,1805
2017-05-13T09:28:41.245Z,1495
2017-05-13T09:29:50.971Z,1450
2017-05-13T09:31:00.395Z,1575
2017-05-13T09:32:10.753Z,1330
2017-05-13T09:33:20.788Z,1495
2017-05-13T09:34:30.514Z,1795
2017-05-13T09:35:39.621Z,2080
2017-05-13T09:36:49.032Z,925
2017-05-13T09:37:58.447Z,1940
2017-05-13T09:39:08.483Z,1950
2017-05-13T09:40:17.582Z,2140
2017-05-13T09:41:27.636Z,2075
2017-05-13T09:42:37.051Z,1905
2017-05-13T09:43:47.404Z,2255
2017-05-13T09:44:57.761Z,2415
2017-05-13T09:46:06.864Z,1800
2017-05-13T09:47:16.591Z,1610
2017-05-13T09:48:26.628Z,2405
2017-05-13T09:49:36.347Z,2550
2017-05-13T09:50:46.389Z,2505
2017-05-13T09:51:55.483Z,2515
2017-05-13T09:53:05.214Z,2550
2017-05-13T09:54:14.941Z,2595
2017-05-13T09:55:24.661Z,2440
2017-05-13T09:56:34.433Z,2630
2017-05-13T09:57:44.817Z,2800
2017-05-13T09:58:54.547Z,2680
2017-05-13T10:00:03.976Z,2790
2017-05-13T10:01:13.706Z,1305
2017-05-13T10:02:23.757Z,2705
2017-05-13T10:03:33.482Z,2670
2017-05-13T10:04:42.275Z,2690
2017-05-13T10:05:51.374Z,2865
2017-05-13T10:07:00.476Z,1245
2017-05-13T10:08:09.265Z,2830
2017-05-13T10:09:18.681Z,2915
2017-05-13T10:10:29.071Z,2700
2017-05-13T10:11:38.798Z,2625
2017-05-13T10:12:48.843Z,3070
2017-05-13T10:13:58.898Z,2940
2017-05-13T10:15:08.628Z,2795
2017-05-13T10:16:18.729Z,2795
2017-05-13T10:17:28.783Z,2890
2017-05-13T10:18:38.515Z,2680
2017-05-13T10:19:48.556Z,2245
2017-05-13T10:20:58.640Z,2475
2017-05-13T10:22:08.062Z,3255
2017-05-13T10:23:17.792Z,2620
2017-05-13T10:24:27.210Z,1365
2017-05-13T10:25:37.251Z,1545
2017-05-13T10:26:46.658Z,885
2017-05-13T10:27:55.783Z,1100
2017-05-13T10:29:05.192Z,975
2017-05-13T10:30:14.601Z,1055
2017-05-13T10:31:24.633Z,1120
2017-05-13T10:32:34.670Z,1330
2017-05-13T10:33:44.709Z,1535
2017-05-13T10:34:54.751Z,2560
2017-05-13T10:36:03.838Z,3195
2017-05-13T10:37:13.887Z,2795
2017-05-13T10:38:23.303Z,2940
2017-05-13T10:39:33.656Z,3245
2017-05-13T10:40:42.750Z,3290
2017-05-13T10:41:51.852Z,990
2017-05-13T10:43:01.572Z,1495
2017-05-13T10:44:11.612Z,1335
2017-05-13T10:45:21.334Z,1125
2017-05-13T10:46:31.689Z,795
2017-05-13T10:47:41.417Z,680
2017-05-13T10:48:50.878Z,1945
2017-05-13T10:50:00.619Z,1235
2017-05-13T10:51:10.376Z,1395
2017-05-13T10:52:20.409Z,1115
2017-05-13T10:53:30.444Z,1135
2017-05-13T10:54:40.169Z,1225
2017-05-13T10:55:49.896Z,1040
2017-05-13T10:56:59.938Z,935
2017-05-13T10:58:09.968Z,930
2017-05-13T10:59:19.374Z,965
2017-05-13T11:00:29.157Z,1005
2017-05-13T11:01:38.881Z,1025
2017-05-13T11:02:48.612Z,1060
2017-05-13T11:03:58.644Z,1135
2017-05-13T11:05:08.685Z,1225
2017-05-13T11:06:18.093Z,1380
2017-05-13T11:07:27.815Z,2645
2017-05-13T11:08:37.215Z,1645
2017-05-13T11:09:46.302Z,3255
2017-05-13T11:10:55.402Z,3145
2017-05-13T11:12:05.125Z,2195
2017-05-13T11:13:14.847Z,1215
2017-05-13T11:14:24.569Z,1315
2017-05-13T11:15:34.031Z,1340
2017-05-13T11:16:44.064Z,1625
2017-05-13T11:17:53.470Z,2000
2017-05-13T11:19:03.821Z,3535
2017-05-13T11:20:13.544Z,3445
2017-05-13T11:21:23.272Z,3600
2017-05-13T11:22:33.312Z,2985
2017-05-13T11:23:43.040Z,3320
2017-05-13T11:24:53.074Z,3655
2017-05-13T11:26:02.802Z,1710
2017-05-13T11:27:12.524Z,1625
2017-05-13T11:28:22.244Z,2275
2017-05-13T11:29:31.658Z,2460
2017-05-13T11:30:41.385Z,3885
2017-05-13T11:31:51.431Z,3095
2017-05-13T11:33:01.827Z,1925
2017-05-13T11:34:11.873Z,3370
2017-05-13T11:35:21.753Z,3560
2017-05-13T11:36:31.167Z,3260
2017-05-13T11:37:41.215Z,3310
2017-05-13T11:38:50.627Z,2770
2017-05-13T11:40:00.356Z,2935
2017-05-13T11:41:10.127Z,885
2017-05-13T11:42:20.164Z,900
2017-05-13T11:43:30.525Z,755
2017-05-13T11:44:40.256Z,710
2017-05-13T11:45:49.983Z,790
2017-05-13T11:46:59.715Z,855
2017-05-13T11:48:09.436Z,890
2017-05-13T11:49:19.791Z,2815
2017-05-13T11:50:30.149Z,1860
2017-05-13T11:51:39.564Z,910
2017-05-13T11:52:49.601Z,1035
2017-05-13T11:53:59.333Z,1135
2017-05-13T11:55:09.056Z,1400
2017-05-13T11:56:18.467Z,1190
2017-05-13T11:57:28.503Z,1155
2017-05-13T11:58:38.851Z,1435
2017-05-13T11:59:48.587Z,1545
2017-05-13T12:00:57.705Z,1410
2017-05-13T12:02:07.736Z,1380
2017-05-13T12:03:17.463Z,3130
2017-05-13T12:04:27.182Z,1215
2017-05-13T12:05:37.214Z,3320
2017-05-13T12:06:46.958Z,3360
2017-05-13T12:07:56.682Z,1025
2017-05-13T12:09:06.093Z,2545
2017-05-13T12:10:16.133Z,3025
2017-05-13T12:11:25.538Z,1195
2017-05-13T12:12:34.942Z,2985
2017-05-13T12:13:44.977Z,2790
2017-05-13T12:14:54.701Z,1980
2017-05-13T12:16:04.415Z,2120
2017-05-13T12:17:14.142Z,3375
2017-05-13T12:18:23.868Z,1160
2017-05-13T12:19:33.905Z,1025
2017-05-13T12:20:43.634Z,1970
2017-05-13T12:21:53.670Z,1080
2017-05-13T12:23:03.391Z,3095
2017-05-13T12:24:13.431Z,2950
2017-05-13T12:25:23.467Z,2815
2017-05-13T12:26:33.513Z,3000
2017-05-13T12:27:42.606Z,2805
2017-05-13T12:28:52.011Z,2915
2017-05-13T12:30:01.422Z,825
2017-05-13T12:31:10.836Z,650
2017-05-13T12:32:20.245Z,700
2017-05-13T12:33:29.981Z,3000
2017-05-13T12:34:39.400Z,2390
2017-05-13T12:35:49.133Z,3120
2017-05-13T12:36:59.180Z,2880
2017-05-13T12:38:09.234Z,2845
2017-05-13T12:39:19.580Z,2930
2017-05-13T12:40:29.310Z,700
2017-05-13T12:41:39.075Z,1620
2017-05-13T12:42:49.130Z,885
2017-05-13T12:43:58.541Z,895
2017-05-13T12:45:08.582Z,2880
2017-05-13T12:46:17.988Z,3100
2017-05-13T12:47:27.398Z,3030
2017-05-13T12:48:36.806Z,3005
2017-05-13T12:49:46.554Z,2890
2017-05-13T12:50:56.602Z,2695
2017-05-13T12:52:06.010Z,2755
2017-05-13T12:53:15.733Z,2515
2017-05-13T12:54:26.090Z,2520
2017-05-13T12:55:35.504Z,680
2017-05-13T12:56:45.231Z,710
2017-05-13T12:57:54.642Z,910
2017-05-13T12:59:04.673Z,2845
2017-05-13T13:00:14.710Z,3250
2017-05-13T13:01:24.434Z,1040
2017-05-13T13:02:33.847Z,945
2017-05-13T13:03:43.255Z,965
2017-05-13T13:04:53.293Z,1280
2017-05-13T13:06:03.326Z,2485
2017-05-13T13:07:13.360Z,3055
2017-05-13T13:08:23.090Z,2855
2017-05-13T13:09:33.132Z,2895
2017-05-13T13:10:43.167Z,2655
2017-05-13T13:11:53.208Z,2840
2017-05-13T13:13:03.247Z,2730
2017-05-13T13:14:13.602Z,2700
2017-05-13T13:15:23.644Z,2730
2017-05-13T13:16:33.679Z,2645
2017-05-13T13:17:43.718Z,2825
2017-05-13T13:18:53.454Z,590
2017-05-13T13:20:03.496Z,550
2017-05-13T13:21:13.224Z,660
2017-05-13T13:22:22.634Z,715
2017-05-13T13:23:32.669Z,795
2017-05-13T13:24:42.710Z,2790
2017-05-13T13:25:52.113Z,2860
2017-05-13T13:27:01.844Z,775
2017-05-13T13:28:11.243Z,695
2017-05-13T13:29:21.589Z,1410
2017-05-13T13:30:30.993Z,930
2017-05-13T13:31:40.405Z,2765
2017-05-13T13:32:50.127Z,2645
2017-05-13T13:34:00.163Z,2730
2017-05-13T13:35:10.200Z,670
2017-05-13T13:36:20.236Z,2745
2017-05-13T13:37:29.957Z,710
2017-05-13T13:38:39.676Z,2725
2017-05-13T13:39:48.770Z,2675
2017-05-13T13:40:58.494Z,610
2017-05-13T13:42:08.216Z,2675
2017-05-13T13:43:17.636Z,1930
2017-05-13T13:44:27.671Z,2690
2017-05-13T13:45:37.081Z,2565
2017-05-13T13:46:46.499Z,2585
2017-05-13T13:47:56.222Z,2430
2017-05-13T13:49:05.952Z,2595
2017-05-13T13:50:15.045Z,2510
2017-05-13T13:51:24.454Z,2545
2017-05-13T13:52:34.176Z,2520
2017-05-13T13:53:44.211Z,2460
2017-05-13T13:54:54.242Z,2475
2017-05-13T13:56:03.961Z,1495
2017-05-13T13:57:14.007Z,2280
2017-05-13T13:58:24.047Z,2690
2017-05-13T13:59:33.451Z,2590
2017-05-13T14:00:43.176Z,2510
2017-05-13T14:01:52.584Z,2510
2017-05-13T14:03:02.939Z,2440
2017-05-13T14:04:12.984Z,2345
2017-05-13T14:05:22.702Z,2395
2017-05-13T14:06:32.752Z,2370
2017-05-13T14:07:42.532Z,2420
2017-05-13T14:08:52.264Z,2435
2017-05-13T14:10:01.050Z,2510
2017-05-13T14:11:11.407Z,2525
2017-05-13T14:12:20.814Z,2415
2017-05-13T14:13:30.544Z,2420
2017-05-13T14:14:40.583Z,2595
2017-05-13T14:15:50.625Z,2210
2017-05-13T14:17:00.355Z,830
2017-05-13T14:18:09.762Z,785
2017-05-13T14:19:19.172Z,775
2017-05-13T14:20:28.899Z,770
2017-05-13T14:21:38.939Z,905
2017-05-13T14:22:48.344Z,2355
2017-05-13T14:23:58.383Z,2230
2017-05-13T14:25:08.415Z,2395
2017-05-13T14:26:18.135Z,2615
2017-05-13T14:27:27.853Z,2420
2017-05-13T14:28:37.619Z,2465
2017-05-13T14:29:47.349Z,2425
2017-05-13T14:30:56.796Z,2450
2017-05-13T14:32:05.894Z,2320
2017-05-13T14:33:15.621Z,2350
2017-05-13T14:34:25.030Z,2250
2017-05-13T14:35:35.069Z,2320
2017-05-13T14:36:45.110Z,2370
2017-05-13T14:37:53.892Z,1585
2017-05-13T14:39:03.664Z,605
2017-05-13T14:40:13.081Z,910
2017-05-13T14:41:22.814Z,860
2017-05-13T14:42:32.853Z,870
2017-05-13T14:43:42.888Z,1190
2017-05-13T14:44:52.609Z,2425
2017-05-13T14:46:02.646Z,2495
2017-05-13T14:47:12.372Z,985
2017-05-13T14:48:22.414Z,905
2017-05-13T14:49:32.141Z,2215
2017-05-13T14:50:41.553Z,2500
2017-05-13T14:51:51.902Z,2460
2017-05-13T14:53:01.313Z,2545
2017-05-13T14:54:11.038Z,2510
2017-05-13T14:55:20.450Z,2430
2017-05-13T14:56:29.862Z,2580
2017-05-13T14:57:39.905Z,2425
2017-05-13T14:58:49.945Z,985
2017-05-13T14:59:59.983Z,905
2017-05-13T15:01:09.706Z,910
2017-05-13T15:02:19.432Z,1485
2017-05-13T15:03:29.162Z,1510
2017-05-13T15:04:39.514Z,2525
2017-05-13T15:05:49.241Z,2485
2017-05-13T15:06:58.963Z,905
2017-05-13T15:08:08.375Z,790
2017-05-13T15:09:18.411Z,725
2017-05-13T15:10:27.846Z,655
2017-05-13T15:11:37.565Z,635
2017-05-13T15:12:47.278Z,640
2017-05-13T15:13:57.016Z,670
2017-05-13T15:15:06.741Z,695
2017-05-13T15:16:16.785Z,725
2017-05-13T15:17:26.505Z,735
2017-05-13T15:18:36.234Z,715
2017-05-13T15:19:45.323Z,680
2017-05-13T15:20:55.046Z,660
2017-05-13T15:22:04.456Z,655
2017-05-13T15:23:14.530Z,685
2017-05-13T15:24:24.565Z,730
2017-05-13T15:25:34.913Z,785
2017-05-13T15:26:44.313Z,850
2017-05-13T15:27:54.662Z,960
2017-05-13T15:29:04.386Z,985
2017-05-13T15:30:14.103Z,1035
2017-05-13T15:31:24.129Z,960
2017-05-13T15:32:34.202Z,870
2017-05-13T15:33:43.289Z,835
2017-05-13T15:34:53.020Z,825
2017-05-13T15:36:02.424Z,845
2017-05-13T15:37:11.507Z,880
2017-05-13T15:38:21.539Z,1025
2017-05-13T15:39:31.573Z,1010
2017-05-13T15:40:41.299Z,880
2017-05-13T15:41:51.382Z,880
2017-05-13T15:43:00.475Z,810
2017-05-13T15:44:10.519Z,820
2017-05-13T15:45:20.552Z,820
2017-05-13T15:46:30.584Z,775
2017-05-13T15:47:40.300Z,760
2017-05-13T15:48:50.028Z,735
2017-05-13T15:50:00.061Z,720
2017-05-13T15:51:09.786Z,710
2017-05-13T15:52:19.192Z,695
2017-05-13T15:53:28.905Z,685
2017-05-13T15:54:38.625Z,665
2017-05-13T15:55:48.346Z,635
2017-05-13T15:56:57.753Z,580
2017-05-13T15:58:07.788Z,535
2017-05-13T15:59:17.821Z,510
2017-05-13T16:00:27.854Z,490
2017-05-13T16:01:37.257Z,480
2017-05-13T16:02:46.669Z,480
2017-05-13T16:03:56.414Z,495
2017-05-13T16:05:05.501Z,510